createdAt,value
2023-04-10T00:01:01.846Z,84.23
2023-04-10T00:03:25.323Z,84.41
2023-04-10T00:05:48.285Z,84.63
2023-04-10T00:08:10.938Z,84.89
2023-04-10T00:10:33.663Z,84.92
2023-04-10T00:12:56.538Z,84.97
2023-04-10T00:15:19.293Z,84.70
2023-04-10T00:17:42.036Z,84.68
2023-04-10T00:20:06.052Z,84.84
2023-04-10T00:22:30.423Z,84.48
2023-04-10T00:24:53.204Z,84.56
2023-04-10T00:27:15.833Z,84.65
2023-04-10T00:29:38.764Z,84.45
2023-04-10T00:32:01.369Z,84.65
2023-04-10T00:34:24.333Z,84.68
2023-04-10T00:36:47.527Z,84.37
2023-04-10T00:39:10.263Z,84.34
2023-04-10T00:41:33.503Z,84.84
2023-04-10T00:43:57.361Z,84.85
2023-04-10T00:46:20.492Z,85.06
2023-04-10T00:48:43.594Z,84.95
2023-04-10T00:51:06.654Z,85.02
2023-04-10T00:53:29.790Z,85.10
2023-04-10T00:55:53.058Z,85.11
2023-04-10T00:58:16.125Z,85.18
2023-04-10T01:00:38.702Z,84.96
2023-04-10T01:03:01.780Z,85.31
2023-04-10T01:05:25.595Z,85.37
2023-04-10T01:08:05.697Z,85.27
2023-04-10T01:10:54.565Z,85.38
2023-04-10T01:13:26.928Z,85.25
2023-04-10T01:16:01.799Z,85.19
2023-04-10T01:18:39.636Z,85.33
2023-04-10T01:21:03.049Z,85.48
2023-04-10T01:23:42.280Z,85.70
2023-04-10T01:26:07.637Z,85.43
2023-04-10T01:28:47.565Z,85.55
2023-04-10T01:31:15.649Z,85.37
2023-04-10T01:33:48.544Z,85.34
2023-04-10T01:36:13.210Z,85.44
2023-04-10T01:38:37.916Z,85.26
2023-04-10T01:41:01.733Z,85.43
2023-04-10T01:43:27.117Z,85.56
2023-04-10T01:45:52.070Z,85.42
2023-04-10T01:48:16.642Z,85.62
2023-04-10T01:50:40.777Z,85.60
2023-04-10T01:53:06.021Z,85.58
2023-04-10T01:55:31.966Z,85.79
2023-04-10T01:58:00.177Z,85.93
2023-04-10T02:00:23.260Z,85.61
2023-04-10T02:02:47.349Z,85.53
2023-04-10T02:05:13.342Z,85.48
2023-04-10T02:07:44.165Z,85.68
2023-04-10T02:10:21.534Z,85.80
2023-04-10T02:12:55.646Z,85.63
2023-04-10T02:15:20.962Z,85.68
2023-04-10T02:17:44.342Z,85.76
2023-04-10T02:20:09.139Z,85.52
2023-04-10T02:22:33.784Z,85.54
2023-04-10T02:24:57.584Z,85.68
2023-04-10T02:27:34.539Z,85.87
2023-04-10T02:29:57.222Z,85.85
2023-04-10T02:32:20.491Z,85.77
2023-04-10T02:34:43.907Z,85.87
2023-04-10T02:37:06.492Z,85.98
2023-04-10T02:39:29.695Z,86.17
2023-04-10T02:41:52.438Z,86.17
2023-04-10T02:44:15.083Z,86.29
2023-04-10T02:46:38.627Z,86.06
2023-04-10T02:49:01.717Z,86.26
2023-04-10T02:51:24.475Z,86.02
2023-04-10T02:53:48.272Z,86.10
2023-04-10T02:56:20.920Z,85.90
2023-04-10T02:58:46.214Z,85.82
2023-04-10T03:01:10.265Z,86.02
2023-04-10T03:03:43.833Z,85.80
2023-04-10T03:06:09.019Z,85.65
2023-04-10T03:08:32.715Z,85.73
2023-04-10T03:10:55.442Z,85.90
2023-04-10T03:13:18.535Z,86.23
2023-04-10T03:15:41.659Z,86.35
2023-04-10T03:18:07.408Z,86.58
2023-04-10T03:20:30.134Z,86.55
2023-04-10T03:22:53.197Z,86.55
2023-04-10T03:25:16.610Z,86.26
2023-04-10T03:27:39.238Z,86.25
2023-04-10T03:30:03.692Z,86.09
2023-04-10T03:32:33.993Z,86.15
2023-04-10T03:34:58.051Z,86.27
2023-04-10T03:37:20.713Z,86.09
2023-04-10T03:39:43.319Z,86.19
2023-04-10T03:42:09.745Z,86.52
2023-04-10T03:44:34.289Z,86.26
2023-04-10T03:46:59.388Z,86.19
2023-04-10T03:49:22.600Z,86.46
2023-04-10T03:51:47.760Z,86.71
2023-04-10T03:54:10.571Z,86.90
2023-04-10T03:56:33.185Z,87.14
2023-04-10T03:58:56.931Z,86.70
2023-04-10T04:01:20.706Z,86.56
2023-04-10T04:04:01.390Z,86.47
2023-04-10T04:06:44.859Z,86.54
2023-04-10T04:09:19.686Z,86.62
2023-04-10T04:12:00.447Z,86.65
2023-04-10T04:14:44.794Z,86.47
2023-04-10T04:17:22.808Z,86.64
2023-04-10T04:20:05.144Z,86.49
2023-04-10T04:22:46.439Z,86.20
2023-04-10T04:25:29.420Z,86.51
2023-04-10T04:28:17.591Z,86.57
2023-04-10T04:30:54.304Z,86.44
2023-04-10T04:33:22.594Z,86.47
2023-04-10T04:36:01.752Z,86.71
2023-04-10T04:38:43.396Z,86.48
2023-04-10T04:41:20.619Z,86.11
2023-04-10T04:44:02.448Z,85.69
2023-04-10T04:46:44.728Z,85.26
2023-04-10T04:49:42.966Z,85.22
2023-04-10T04:52:20.077Z,84.84
2023-04-10T04:54:56.908Z,84.56
2023-04-10T04:57:37.938Z,83.44
2023-04-10T05:00:20.915Z,82.15
2023-04-10T05:02:49.624Z,80.67
2023-04-10T05:05:44.627Z,79.18
2023-04-10T05:08:07.513Z,77.50
2023-04-10T05:10:59.000Z,75.90
2023-04-10T05:13:40.564Z,73.28
2023-04-10T05:16:29.509Z,71.07
2023-04-10T05:19:09.994Z,69.34
2023-04-10T05:22:05.418Z,69.88
2023-04-10T05:25:06.689Z,67.67
2023-04-10T05:27:44.265Z,64.88
2023-04-10T05:30:25.971Z,62.59
2023-04-10T05:33:05.393Z,60.61
2023-04-10T05:35:30.854Z,58.46
2023-04-10T05:38:13.793Z,57.58
2023-04-10T05:41:09.080Z,59.14
2023-04-10T05:43:51.186Z,59.40
2023-04-10T05:46:40.207Z,58.88
2023-04-10T05:49:19.152Z,60.13
2023-04-10T05:52:00.307Z,60.80
2023-04-10T05:54:41.395Z,62.43
2023-04-10T05:57:20.974Z,60.07
2023-04-10T05:59:59.516Z,56.56
2023-04-10T06:02:39.143Z,53.34
2023-04-10T06:05:05.546Z,51.56
2023-04-10T06:07:30.061Z,49.88
2023-04-10T06:09:53.093Z,48.87
2023-04-10T06:12:15.793Z,48.78
2023-04-10T06:14:39.139Z,49.41
2023-04-10T06:17:02.239Z,49.54
2023-04-10T06:19:25.055Z,50.84
2023-04-10T06:21:47.728Z,53.31
2023-04-10T06:24:12.358Z,52.29
2023-04-10T06:26:35.480Z,53.35
2023-04-10T06:29:00.546Z,53.39
2023-04-10T06:31:24.824Z,55.61
2023-04-10T06:33:49.058Z,55.83
2023-04-10T06:36:11.767Z,55.65
2023-04-10T06:38:40.739Z,53.56
2023-04-10T06:41:05.354Z,51.74
2023-04-10T06:43:28.244Z,50.19
2023-04-10T06:45:51.099Z,52.51
2023-04-10T06:48:14.533Z,54.33
2023-04-10T06:50:37.153Z,54.93
2023-04-10T06:53:00.238Z,57.64
2023-04-10T06:55:24.341Z,56.34
2023-04-10T06:57:46.999Z,53.32
2023-04-10T07:00:10.462Z,52.96
2023-04-10T07:02:33.418Z,53.47
2023-04-10T07:04:56.945Z,53.92
2023-04-10T07:07:19.952Z,54.26
2023-04-10T07:09:42.595Z,53.87
2023-04-10T07:12:05.553Z,54.71
2023-04-10T07:14:28.207Z,54.04
2023-04-10T07:16:51.373Z,52.54
2023-04-10T07:19:13.955Z,50.71
2023-04-10T07:21:37.095Z,49.27
2023-04-10T07:23:59.779Z,46.65
2023-04-10T07:26:22.916Z,46.13
2023-04-10T07:28:45.699Z,46.17
2023-04-10T07:31:08.626Z,46.77
2023-04-10T07:33:31.522Z,44.97
2023-04-10T07:35:54.243Z,45.06
2023-04-10T07:38:17.910Z,44.79
2023-04-10T07:40:40.655Z,44.96
2023-04-10T07:43:03.885Z,43.83
2023-04-10T07:45:27.872Z,42.72
2023-04-10T07:47:50.575Z,41.23
2023-04-10T07:50:13.214Z,41.30
2023-04-10T07:52:36.141Z,39.20
2023-04-10T07:55:02.123Z,37.86
2023-04-10T07:57:24.797Z,38.39
2023-04-10T07:59:48.082Z,39.72
2023-04-10T08:02:10.756Z,40.31
2023-04-10T08:04:34.054Z,39.60
2023-04-10T08:06:56.789Z,39.29
2023-04-10T08:09:20.540Z,39.63
2023-04-10T08:11:43.543Z,41.78
2023-04-10T08:14:07.290Z,41.11
2023-04-10T08:16:32.910Z,40.66
2023-04-10T08:18:59.682Z,43.11
2023-04-10T08:21:23.163Z,41.13
2023-04-10T08:23:48.863Z,43.34
2023-04-10T08:26:11.457Z,42.59
2023-04-10T08:28:34.103Z,42.65
2023-04-10T08:30:56.752Z,44.09
2023-04-10T08:33:19.664Z,43.25
2023-04-10T08:35:42.242Z,44.48
2023-04-10T08:38:13.631Z,46.47
2023-04-10T08:40:38.093Z,45.31
2023-04-10T08:43:00.931Z,46.84
2023-04-10T08:45:23.775Z,45.70
2023-04-10T08:47:49.781Z,46.23
2023-04-10T08:50:16.203Z,47.58
2023-04-10T08:52:44.061Z,48.32
2023-04-10T08:55:09.242Z,47.47
2023-04-10T08:57:32.870Z,46.63
2023-04-10T08:59:55.869Z,48.00
2023-04-10T09:02:19.428Z,47.67
2023-04-10T09:04:49.152Z,45.29
2023-04-10T09:07:11.720Z,44.21
2023-04-10T09:09:35.474Z,42.19
2023-04-10T09:12:01.082Z,42.41
2023-04-10T09:14:26.012Z,42.76
2023-04-10T09:16:49.272Z,42.57
2023-04-10T09:19:11.972Z,41.95
2023-04-10T09:21:34.540Z,41.70
2023-04-10T09:24:01.680Z,39.68
2023-04-10T09:26:29.104Z,41.43
2023-04-10T09:29:06.361Z,41.15
2023-04-10T09:31:39.499Z,40.20
2023-04-10T09:34:18.435Z,38.85
2023-04-10T09:36:45.573Z,40.74
2023-04-10T09:39:09.612Z,41.54
2023-04-10T09:41:32.465Z,41.72
2023-04-10T09:44:18.927Z,41.86
2023-04-10T09:46:41.738Z,41.92
2023-04-10T09:49:07.907Z,41.59
2023-04-10T09:51:35.582Z,39.75
2023-04-10T09:53:58.492Z,38.12
2023-04-10T09:56:22.739Z,38.67
2023-04-10T09:58:46.082Z,37.64
2023-04-10T10:01:08.843Z,37.45
2023-04-10T10:03:31.567Z,37.94
2023-04-10T10:05:54.415Z,37.06
2023-04-10T10:08:17.765Z,37.79
2023-04-10T10:10:53.732Z,38.19
2023-04-10T10:13:40.531Z,37.03
2023-04-10T10:16:12.732Z,37.41
2023-04-10T10:18:47.473Z,37.84
2023-04-10T10:21:10.439Z,37.08
2023-04-10T10:23:34.265Z,36.32
2023-04-10T10:26:02.303Z,35.36
2023-04-10T10:28:28.342Z,35.78
2023-04-10T10:30:51.589Z,36.93
2023-04-10T10:33:15.159Z,36.19
2023-04-10T10:35:38.040Z,35.68
2023-04-10T10:38:02.462Z,36.98
2023-04-10T10:40:52.102Z,38.09
2023-04-10T10:43:37.822Z,36.49
2023-04-10T10:46:09.209Z,35.15
2023-04-10T10:48:32.114Z,35.27
2023-04-10T10:50:57.714Z,36.85
2023-04-10T10:53:43.085Z,35.25
2023-04-10T10:56:23.585Z,33.87
2023-04-10T10:58:51.116Z,34.55
2023-04-10T11:01:14.357Z,35.33
2023-04-10T11:03:37.586Z,35.08
2023-04-10T11:06:12.965Z,34.52
2023-04-10T11:08:44.221Z,35.13
2023-04-10T11:11:15.939Z,34.83
2023-04-10T11:14:02.877Z,34.39
2023-04-10T11:16:36.008Z,34.51
2023-04-10T11:19:13.795Z,35.05
2023-04-10T11:22:05.730Z,35.58
2023-04-10T11:24:29.540Z,37.96
2023-04-10T11:26:52.213Z,38.59
2023-04-10T11:29:17.919Z,39.19
2023-04-10T11:31:40.596Z,38.72
2023-04-10T11:34:08.209Z,37.73
2023-04-10T11:36:32.257Z,37.46
2023-04-10T11:38:57.613Z,37.06
2023-04-10T11:41:20.596Z,38.39
2023-04-10T11:43:43.203Z,38.37
2023-04-10T11:46:10.449Z,38.65
2023-04-10T11:48:34.007Z,38.94
2023-04-10T11:50:56.750Z,38.82
2023-04-10T11:53:22.795Z,38.99
2023-04-10T11:55:45.514Z,38.80
2023-04-10T11:58:26.191Z,39.42
2023-04-10T12:01:00.563Z,40.58
2023-04-10T12:03:36.719Z,39.62
2023-04-10T12:05:59.553Z,39.66
2023-04-10T12:08:30.008Z,39.59
2023-04-10T12:10:53.070Z,40.51
2023-04-10T12:13:29.441Z,39.25
2023-04-10T12:15:52.345Z,39.54
2023-04-10T12:18:15.053Z,40.24
2023-04-10T12:20:37.983Z,39.52
2023-04-10T12:23:03.129Z,40.39
2023-04-10T12:25:25.862Z,39.71
2023-04-10T12:27:50.754Z,40.62
2023-04-10T12:30:13.413Z,39.36
2023-04-10T12:32:37.478Z,38.30
2023-04-10T12:35:03.273Z,38.12
2023-04-10T12:37:46.488Z,37.94
2023-04-10T12:40:09.831Z,39.52
2023-04-10T12:42:40.585Z,39.05
2023-04-10T12:45:03.576Z,40.49
2023-04-10T12:47:28.882Z,41.00
2023-04-10T12:50:07.861Z,41.27
2023-04-10T12:52:30.942Z,42.40
2023-04-10T12:54:53.822Z,42.47
2023-04-10T12:57:27.310Z,41.79
2023-04-10T12:59:50.186Z,43.02
2023-04-10T13:02:13.340Z,43.42
2023-04-10T13:04:36.172Z,43.96
2023-04-10T13:06:58.855Z,44.32
2023-04-10T13:09:22.422Z,45.53
2023-04-10T13:11:46.096Z,44.66
2023-04-10T13:14:11.291Z,44.62
2023-04-10T13:16:34.231Z,45.08
2023-04-10T13:18:57.196Z,45.04
2023-04-10T13:21:22.942Z,45.90
2023-04-10T13:23:47.137Z,45.23
2023-04-10T13:26:09.887Z,45.45
2023-04-10T13:28:32.693Z,44.83
2023-04-10T13:30:55.319Z,45.10
2023-04-10T13:33:18.303Z,43.46
2023-04-10T13:35:41.293Z,43.98
2023-04-10T13:38:04.215Z,44.60
2023-04-10T13:40:27.358Z,44.55
2023-04-10T13:42:50.062Z,44.96
2023-04-10T13:45:12.772Z,42.71
2023-04-10T13:47:35.474Z,43.52
2023-04-10T13:49:58.072Z,42.91
2023-04-10T13:52:20.894Z,42.37
2023-04-10T13:54:43.616Z,42.17
2023-04-10T13:57:06.303Z,42.03
2023-04-10T13:59:29.033Z,41.72
2023-04-10T14:01:52.803Z,40.98
2023-04-10T14:04:15.598Z,41.77
2023-04-10T14:06:38.173Z,42.84
2023-04-10T14:09:01.233Z,42.71
2023-04-10T14:11:24.002Z,42.92
2023-04-10T14:13:46.690Z,42.66
2023-04-10T14:16:09.653Z,43.17
2023-04-10T14:18:32.465Z,42.87
2023-04-10T14:20:55.302Z,42.95
2023-04-10T14:23:18.514Z,42.41
2023-04-10T14:25:41.243Z,44.24
2023-04-10T14:28:03.892Z,43.43
2023-04-10T14:30:31.091Z,44.34
2023-04-10T14:32:54.716Z,42.93
2023-04-10T14:35:17.515Z,44.10
2023-04-10T14:37:40.516Z,43.74
2023-04-10T14:40:05.061Z,44.58
2023-04-10T14:42:27.838Z,44.16
2023-04-10T14:44:50.527Z,45.16
2023-04-10T14:47:13.746Z,45.51
2023-04-10T14:49:36.608Z,44.86
2023-04-10T14:51:59.218Z,44.71
2023-04-10T14:54:23.670Z,43.54
2023-04-10T14:56:46.635Z,44.28
2023-04-10T14:59:09.406Z,44.05
2023-04-10T15:01:32.051Z,44.54
2023-04-10T15:03:55.420Z,44.41
2023-04-10T15:06:18.240Z,44.68
2023-04-10T15:08:42.640Z,44.34
2023-04-10T15:11:06.033Z,44.74
2023-04-10T15:13:28.748Z,44.76
2023-04-10T15:15:51.378Z,43.38
2023-04-10T15:18:16.173Z,43.72
2023-04-10T15:20:39.055Z,44.15
2023-04-10T15:23:02.381Z,43.41
2023-04-10T15:25:25.004Z,44.05
2023-04-10T15:27:47.656Z,44.50
2023-04-10T15:30:11.112Z,44.47
2023-04-10T15:32:37.295Z,43.30
2023-04-10T15:34:59.934Z,44.04
2023-04-10T15:37:27.961Z,45.09
2023-04-10T15:39:51.107Z,44.96
2023-04-10T15:42:16.012Z,43.88
2023-04-10T15:44:38.569Z,44.50
2023-04-10T15:47:01.180Z,43.61
2023-04-10T15:49:36.302Z,44.42
2023-04-10T15:51:59.846Z,43.93
2023-04-10T15:54:22.500Z,44.15
2023-04-10T15:56:45.504Z,45.21
2023-04-10T15:59:08.155Z,45.05
2023-04-10T16:01:31.063Z,44.63
2023-04-10T16:03:54.302Z,44.74
2023-04-10T16:06:17.269Z,43.70
2023-04-10T16:08:40.026Z,44.14
2023-04-10T16:11:02.827Z,44.77
2023-04-10T16:13:25.493Z,45.03
2023-04-10T16:15:49.830Z,44.55
2023-04-10T16:18:13.183Z,45.52
2023-04-10T16:20:36.127Z,45.77
2023-04-10T16:22:59.396Z,44.93
2023-04-10T16:25:22.277Z,45.44
2023-04-10T16:27:44.878Z,45.41
2023-04-10T16:30:08.663Z,46.16
2023-04-10T16:32:31.877Z,45.96
2023-04-10T16:34:54.653Z,46.04
2023-04-10T16:37:17.194Z,45.93
2023-04-10T16:39:40.606Z,46.23
2023-04-10T16:42:03.624Z,46.91
2023-04-10T16:44:26.268Z,46.56
2023-04-10T16:46:48.934Z,46.56
2023-04-10T16:49:11.757Z,47.29
2023-04-10T16:51:34.609Z,46.90
2023-04-10T16:53:57.434Z,46.74
2023-04-10T16:56:20.111Z,47.07
2023-04-10T16:58:42.826Z,47.40
2023-04-10T17:01:20.652Z,48.25
2023-04-10T17:03:44.712Z,48.65
2023-04-10T17:06:07.489Z,48.96
2023-04-10T17:08:30.328Z,49.92
2023-04-10T17:10:53.099Z,50.27
2023-04-10T17:13:15.931Z,50.85
2023-04-10T17:15:38.777Z,51.11
2023-04-10T17:18:01.731Z,52.08
2023-04-10T17:20:24.785Z,52.89
2023-04-10T17:22:47.716Z,52.52
2023-04-10T17:25:11.023Z,53.20
2023-04-10T17:27:33.809Z,53.15
2023-04-10T17:29:57.569Z,53.04
2023-04-10T17:32:20.550Z,53.37
2023-04-10T17:34:43.249Z,53.15
2023-04-10T17:37:05.916Z,53.15
2023-04-10T17:39:28.590Z,53.18
2023-04-10T17:41:51.714Z,53.01
2023-04-10T17:44:14.387Z,52.94
2023-04-10T17:46:37.084Z,52.98
2023-04-10T17:49:01.436Z,52.98
2023-04-10T17:51:25.164Z,52.62
2023-04-10T17:53:47.914Z,53.16
2023-04-10T17:56:19.077Z,53.12
2023-04-10T17:58:43.202Z,53.16
2023-04-10T18:01:07.373Z,53.52
2023-04-10T18:03:30.169Z,53.60
2023-04-10T18:05:53.112Z,53.94
2023-04-10T18:08:16.074Z,54.07
2023-04-10T18:10:38.703Z,54.38
2023-04-10T18:13:01.694Z,54.44
2023-04-10T18:15:28.119Z,54.75
2023-04-10T18:17:51.188Z,54.62
2023-04-10T18:20:14.919Z,54.92
2023-04-10T18:22:37.522Z,55.36
2023-04-10T18:25:01.122Z,54.83
2023-04-10T18:27:23.927Z,54.67
2023-04-10T18:29:46.859Z,54.72
2023-04-10T18:32:09.598Z,55.17
2023-04-10T18:34:32.213Z,55.72
2023-04-10T18:36:55.773Z,56.20
2023-04-10T18:39:19.744Z,55.81
2023-04-10T18:41:42.566Z,57.21
2023-04-10T18:44:05.978Z,56.70
2023-04-10T18:46:30.236Z,56.94
2023-04-10T18:48:55.452Z,56.08
2023-04-10T18:51:18.108Z,56.88
2023-04-10T18:53:41.408Z,56.97
2023-04-10T18:56:04.369Z,56.80
2023-04-10T18:58:27.177Z,56.26
2023-04-10T19:00:50.370Z,56.65
2023-04-10T19:03:14.290Z,57.39
2023-04-10T19:05:36.981Z,57.13
2023-04-10T19:08:04.714Z,57.11
2023-04-10T19:10:28.211Z,57.55
2023-04-10T19:12:53.274Z,58.16
2023-04-10T19:15:16.526Z,58.32
2023-04-10T19:17:39.468Z,59.13
2023-04-10T19:20:02.687Z,59.09
2023-04-10T19:22:25.607Z,58.93
2023-04-10T19:24:48.569Z,59.00
2023-04-10T19:27:11.325Z,58.38
2023-04-10T19:29:34.274Z,58.17
2023-04-10T19:31:56.999Z,58.19
2023-04-10T19:34:19.746Z,58.24
2023-04-10T19:36:42.333Z,58.48
2023-04-10T19:39:05.144Z,58.58
2023-04-10T19:41:27.972Z,58.65
2023-04-10T19:43:52.866Z,58.52
2023-04-10T19:46:17.801Z,58.73
2023-04-10T19:48:40.918Z,58.98
2023-04-10T19:51:05.243Z,59.21
2023-04-10T19:53:28.184Z,59.18
2023-04-10T19:55:50.784Z,59.19
2023-04-10T19:58:25.271Z,59.90
2023-04-10T20:01:02.235Z,59.87
2023-04-10T20:03:27.847Z,59.86
2023-04-10T20:05:50.686Z,60.72
2023-04-10T20:08:13.971Z,61.79
2023-04-10T20:10:36.707Z,61.57
2023-04-10T20:12:59.471Z,61.70
2023-04-10T20:15:22.174Z,61.37
2023-04-10T20:17:44.856Z,61.37
2023-04-10T20:20:08.758Z,61.61
2023-04-10T20:22:31.500Z,62.12
2023-04-10T20:24:54.247Z,62.08
2023-04-10T20:27:17.434Z,61.75
2023-04-10T20:29:40.631Z,62.77
2023-04-10T20:32:03.299Z,62.21
2023-04-10T20:34:26.050Z,63.44
2023-04-10T20:36:48.619Z,64.01
2023-04-10T20:39:11.312Z,63.49
2023-04-10T20:41:34.039Z,64.15
2023-04-10T20:43:57.507Z,64.00
2023-04-10T20:46:20.070Z,65.27
2023-04-10T20:48:42.754Z,65.61
2023-04-10T20:51:05.724Z,65.81
2023-04-10T20:53:29.484Z,65.66
2023-04-10T20:55:54.129Z,66.83
2023-04-10T20:58:16.760Z,66.95
2023-04-10T21:00:41.093Z,67.21
2023-04-10T21:03:03.952Z,67.41
2023-04-10T21:05:26.787Z,67.89
2023-04-10T21:07:49.679Z,68.28
2023-04-10T21:10:12.399Z,68.76
2023-04-10T21:12:35.410Z,69.62
2023-04-10T21:14:58.048Z,70.01
2023-04-10T21:17:22.037Z,69.85
2023-04-10T21:19:45.085Z,70.14
2023-04-10T21:22:10.251Z,70.87
2023-04-10T21:24:32.873Z,70.76
2023-04-10T21:26:55.657Z,71.25
2023-04-10T21:29:19.775Z,71.55
2023-04-10T21:31:42.435Z,72.17
2023-04-10T21:34:05.202Z,72.10
2023-04-10T21:36:27.834Z,72.00
2023-04-10T21:38:50.572Z,72.06
2023-04-10T21:41:13.557Z,72.02
2023-04-10T21:43:37.175Z,72.27
2023-04-10T21:46:02.210Z,72.42
2023-04-10T21:48:25.766Z,73.30
2023-04-10T21:50:49.775Z,73.80
2023-04-10T21:53:12.646Z,73.59
2023-04-10T21:55:35.492Z,74.12
2023-04-10T21:57:58.397Z,74.28
2023-04-10T22:00:22.836Z,74.11
2023-04-10T22:02:46.205Z,73.96
2023-04-10T22:05:09.043Z,73.97
2023-04-10T22:07:31.876Z,73.86
2023-04-10T22:09:54.794Z,74.59
2023-04-10T22:12:17.489Z,75.09
2023-04-10T22:14:40.277Z,75.08
2023-04-10T22:17:02.896Z,75.31
2023-04-10T22:19:25.850Z,75.32
2023-04-10T22:21:48.521Z,75.20
2023-04-10T22:24:11.193Z,75.27
2023-04-10T22:26:36.619Z,74.79
2023-04-10T22:28:59.240Z,74.48
2023-04-10T22:31:22.152Z,74.09
2023-04-10T22:33:45.049Z,73.62
2023-04-10T22:36:08.191Z,74.21
2023-04-10T22:38:31.218Z,74.59
2023-04-10T22:40:54.891Z,74.57
2023-04-10T22:43:17.492Z,74.95
2023-04-10T22:45:41.262Z,74.67
2023-04-10T22:48:04.050Z,74.30
2023-04-10T22:50:26.732Z,74.33
2023-04-10T22:52:49.560Z,75.31
2023-04-10T22:55:12.870Z,74.99
2023-04-10T22:57:35.916Z,75.04
2023-04-10T23:00:00.379Z,74.93
2023-04-10T23:02:23.626Z,75.47
2023-04-10T23:04:46.512Z,76.02
2023-04-10T23:07:09.267Z,76.13
2023-04-10T23:09:32.388Z,76.31
2023-04-10T23:11:55.095Z,76.04
2023-04-10T23:14:17.766Z,76.50
2023-04-10T23:16:40.514Z,77.77
2023-04-10T23:19:03.195Z,77.61
2023-04-10T23:21:27.305Z,77.23
2023-04-10T23:23:50.024Z,77.28
2023-04-10T23:26:12.767Z,77.45
2023-04-10T23:28:35.420Z,78.09
2023-04-10T23:30:58.167Z,78.32
2023-04-10T23:33:21.126Z,78.18
2023-04-10T23:35:43.921Z,78.21
2023-04-10T23:38:06.609Z,78.49
2023-04-10T23:40:29.856Z,78.43
2023-04-10T23:42:52.659Z,78.31
2023-04-10T23:45:15.654Z,78.96
2023-04-10T23:47:38.731Z,78.93
2023-04-10T23:50:01.625Z,78.50
2023-04-10T23:52:24.432Z,78.18
2023-04-10T23:54:47.088Z,78.04
2023-04-10T23:57:09.954Z,78.01
2023-04-10T23:59:32.653Z,78.26
